Slater, IA (50244)

10:27 AM CDT on July 27, 2016 (GMT -0500)
Benton Street | | Change Station

Elev 1001 ft 41.88 °N, 93.68 °W | Updated 1 second ago

Clear
Clear
79.0 °F
Feels Like 83 °F
N
0.0
Wind Variable Wind from NE
Gusts 6.0 mph

Today
High -- | Low -- °F
--% Chance of Precip.
Yesterday
High -- | Low -- °F
Precip. -- in
Pressure 29.99 in
Visibility 10.0 miles
Clouds Clear
Heat Index 83 °F
Dew Point 78 °F
Humidity 96%
Rainfall 0.00 in
Snow Depth Not available.
6:04 AM 8:37 PM
Last Quarter, 42% visible
METAR KAMW 271453Z AUTO 12005KT 10SM CLR 24/21 A3001 RMK AO2 SLP155 T02440211 53002 $
Pressure 29.99 in
Visibility 10.0 miles
Clouds Clear
Heat Index 83 °F
Dew Point 78 °F
Humidity 96%
Rainfall 0.00 in
Snow Depth Not available.
6:04 AM 8:37 PM
Last Quarter, 42% visible
METAR KAMW 271453Z AUTO 12005KT 10SM CLR 24/21 A3001 RMK AO2 SLP155 T02440211 53002 $

10-Day Weather Forecast

Almanac

Astronomy

Jul. 27, 2016 Rise Set
Actual Time
Civil Twilight
Nautical Twilight
Astronomical Twilight
Moon
Length of Visible Light
Length of Day
Tomorrow will be .
, % of the Moon is Illuminated

Today's Extremes

State Highs State Lows

Community

WunderPhotos

Upload Photos

1,927,859 photos uploaded!

WunderBlog® & News

Nearby

Air Quality

  Air Quality AQ Index Pollutant
Not available.

Snow Depth

Station Depth Elevation

Earthquake Activity

City Distance Mag. Time & Date
Minimum magnitude displayed is 2.5.

Coastal Water Temperatures

Place Temperature

Stations

Nearby Weather Stations

Station Location Temp. Windchill Dew Point Humidity Wind Precip. Elev Updated Type
                   

Watches & Warnings

There are currently no watches in effect.